createdAt,value
2022-12-11T00:00:40.362Z,20.02
2022-12-11T00:03:10.265Z,18.73
2022-12-11T00:05:40.742Z,20.17
2022-12-11T00:08:07.600Z,20.02
2022-12-11T00:10:37.966Z,19.20
2022-12-11T00:13:05.673Z,22.85
2022-12-11T00:15:32.606Z,20.90
2022-12-11T00:17:59.390Z,22.98
2022-12-11T00:20:28.793Z,22.98
2022-12-11T00:22:57.520Z,19.33
2022-12-11T00:25:27.545Z,21.08
2022-12-11T00:27:54.316Z,20.67
2022-12-11T00:30:20.882Z,21.70
2022-12-11T00:32:47.481Z,19.75
2022-12-11T00:35:18.019Z,20.67
2022-12-11T00:37:48.025Z,19.83
2022-12-11T00:40:17.507Z,21.80
2022-12-11T00:42:43.968Z,20.40
2022-12-11T00:45:10.861Z,20.27
2022-12-11T00:47:37.945Z,19.05
2022-12-11T00:50:04.931Z,19.80
2022-12-11T00:52:31.440Z,19.17
2022-12-11T00:54:57.948Z,19.08
2022-12-11T00:57:27.243Z,17.23
2022-12-11T00:59:57.295Z,16.50
2022-12-11T01:02:33.977Z,16.42
2022-12-11T01:05:00.878Z,16.87
2022-12-11T01:07:27.645Z,16.50
2022-12-11T01:09:55.103Z,15.98
2022-12-11T01:12:22.590Z,15.50
2022-12-11T01:14:52.289Z,14.38
2022-12-11T01:17:18.882Z,14.60
2022-12-11T01:19:48.589Z,15.45
2022-12-11T01:22:17.457Z,14.63
2022-12-11T01:24:44.170Z,15.02
2022-12-11T01:27:10.652Z,15.30
2022-12-11T01:29:37.281Z,14.93
2022-12-11T01:32:04.483Z,14.93
2022-12-11T01:34:32.174Z,15.75
2022-12-11T01:36:59.141Z,16.33
2022-12-11T01:39:28.459Z,15.85
2022-12-11T01:41:59.788Z,15.73
2022-12-11T01:44:29.010Z,17.90
2022-12-11T01:46:58.852Z,16.50
2022-12-11T01:49:27.554Z,16.77
2022-12-11T01:52:06.132Z,16.80
2022-12-11T01:54:33.573Z,16.70
2022-12-11T01:57:04.900Z,15.95
2022-12-11T01:59:35.317Z,16.83
2022-12-11T02:02:12.196Z,17.33
2022-12-11T02:04:39.986Z,17.27
2022-12-11T02:07:06.572Z,17.63
2022-12-11T02:09:37.375Z,15.30
2022-12-11T02:12:15.706Z,17.25
2022-12-11T02:14:48.596Z,16.67
2022-12-11T02:17:22.209Z,14.48
2022-12-11T02:20:03.052Z,17.00
2022-12-11T02:22:35.293Z,15.77
2022-12-11T02:25:29.453Z,17.27
2022-12-11T02:28:16.926Z,15.95
2022-12-11T02:30:51.760Z,17.13
2022-12-11T02:33:24.974Z,16.73
2022-12-11T02:35:52.799Z,16.67
2022-12-11T02:38:26.909Z,16.45
2022-12-11T02:40:55.984Z,15.70
2022-12-11T02:43:24.157Z,16.92
2022-12-11T02:45:52.457Z,16.97
2022-12-11T02:48:21.082Z,16.00
2022-12-11T02:50:50.219Z,16.63
2022-12-11T02:53:20.530Z,15.98
2022-12-11T02:55:52.147Z,15.65
2022-12-11T02:58:28.443Z,17.17
2022-12-11T03:00:54.929Z,18.27
2022-12-11T03:03:22.037Z,17.38
2022-12-11T03:05:48.531Z,17.85
2022-12-11T03:08:15.043Z,19.67
2022-12-11T03:10:41.598Z,18.67
2022-12-11T03:13:08.065Z,17.58
2022-12-11T03:16:03.133Z,18.15
2022-12-11T03:18:59.305Z,17.13
2022-12-11T03:21:38.174Z,15.85
2022-12-11T03:24:10.108Z,15.07
2022-12-11T03:26:42.283Z,16.77
2022-12-11T03:29:21.004Z,14.73
2022-12-11T03:31:57.389Z,15.43
2022-12-11T03:34:31.559Z,15.38
2022-12-11T03:36:59.975Z,14.67
2022-12-11T03:39:37.928Z,15.07
2022-12-11T03:42:08.281Z,14.88
2022-12-11T03:44:36.835Z,13.38
2022-12-11T03:47:08.017Z,14.23
2022-12-11T03:49:39.590Z,13.00
2022-12-11T03:52:09.390Z,12.77
2022-12-11T03:54:37.958Z,13.63
2022-12-11T03:57:06.172Z,14.75
2022-12-11T03:59:32.659Z,13.63
2022-12-11T04:01:59.301Z,13.17
2022-12-11T04:04:25.816Z,14.20
2022-12-11T04:06:52.550Z,14.30
2022-12-11T04:09:19.130Z,14.07
2022-12-11T04:11:45.779Z,13.10
2022-12-11T04:14:13.998Z,14.73
2022-12-11T04:16:40.477Z,13.32
2022-12-11T04:19:06.978Z,14.60
2022-12-11T04:21:39.085Z,13.30
2022-12-11T04:24:06.299Z,14.50
2022-12-11T04:26:32.957Z,14.93
2022-12-11T04:28:59.475Z,14.43
2022-12-11T04:31:26.067Z,13.50
2022-12-11T04:33:52.552Z,14.20
2022-12-11T04:36:19.001Z,14.15
2022-12-11T04:38:45.497Z,13.10
2022-12-11T04:41:14.521Z,13.50
2022-12-11T04:43:41.732Z,12.82
2022-12-11T04:46:12.941Z,13.32
2022-12-11T04:48:40.249Z,12.68
2022-12-11T04:51:08.349Z,13.77
2022-12-11T04:53:35.296Z,13.80
2022-12-11T04:56:05.077Z,12.98
2022-12-11T04:58:31.549Z,12.30
2022-12-11T05:00:58.040Z,13.02
2022-12-11T05:03:24.666Z,12.40
2022-12-11T05:05:53.260Z,12.63
2022-12-11T05:08:21.182Z,12.45
2022-12-11T05:11:03.780Z,13.07
2022-12-11T05:13:30.998Z,13.23
2022-12-11T05:15:58.277Z,12.40
2022-12-11T05:18:25.504Z,12.65
2022-12-11T05:21:00.337Z,13.93
2022-12-11T05:23:27.650Z,14.25
2022-12-11T05:25:58.638Z,14.35
2022-12-11T05:28:26.978Z,14.03
2022-12-11T05:31:02.737Z,14.15
2022-12-11T05:33:29.323Z,13.93
2022-12-11T05:35:56.123Z,12.88
2022-12-11T05:38:23.426Z,12.77
2022-12-11T05:41:01.314Z,12.67
2022-12-11T05:43:30.983Z,13.90
2022-12-11T05:46:05.936Z,12.75
2022-12-11T05:48:32.421Z,12.43
2022-12-11T05:51:00.585Z,13.40
2022-12-11T05:53:27.530Z,13.17
2022-12-11T05:55:54.594Z,12.65
2022-12-11T05:58:21.635Z,14.45
2022-12-11T06:00:48.401Z,13.43
2022-12-11T06:03:15.612Z,13.20
2022-12-11T06:05:42.935Z,13.30
2022-12-11T06:08:09.919Z,13.65
2022-12-11T06:10:36.754Z,13.65
2022-12-11T06:13:03.505Z,13.82
2022-12-11T06:15:30.078Z,14.02
2022-12-11T06:17:56.576Z,13.07
2022-12-11T06:20:23.186Z,13.48
2022-12-11T06:22:49.686Z,13.05
2022-12-11T06:25:16.177Z,13.73
2022-12-11T06:27:42.662Z,14.25
2022-12-11T06:30:09.687Z,12.93
2022-12-11T06:32:36.198Z,12.13
2022-12-11T06:35:02.794Z,12.15
2022-12-11T06:37:29.284Z,13.18
2022-12-11T06:39:55.760Z,11.70
2022-12-11T06:42:22.181Z,12.33
2022-12-11T06:44:48.935Z,13.27
2022-12-11T06:47:15.456Z,11.40
2022-12-11T06:49:41.896Z,13.27
2022-12-11T06:52:09.966Z,12.52
2022-12-11T06:54:38.127Z,13.00
2022-12-11T06:57:04.712Z,13.30
2022-12-11T06:59:31.253Z,13.30
2022-12-11T07:01:57.754Z,13.77
2022-12-11T07:04:24.325Z,13.18
2022-12-11T07:06:50.800Z,13.17
2022-12-11T07:09:17.298Z,13.73
2022-12-11T07:11:43.763Z,12.68
2022-12-11T07:14:10.326Z,13.13
2022-12-11T07:16:36.957Z,12.65
2022-12-11T07:19:03.811Z,12.43
2022-12-11T07:21:30.287Z,13.32
2022-12-11T07:23:56.706Z,12.88
2022-12-11T07:26:23.239Z,12.60
2022-12-11T07:28:49.974Z,13.73
2022-12-11T07:31:23.270Z,12.67
2022-12-11T07:34:02.009Z,13.65
2022-12-11T07:36:29.193Z,13.15
2022-12-11T07:38:56.109Z,12.82
2022-12-11T07:41:23.233Z,12.73
2022-12-11T07:43:49.765Z,12.63
2022-12-11T07:46:19.459Z,12.50
2022-12-11T07:48:47.682Z,13.95
2022-12-11T07:51:21.975Z,13.57
2022-12-11T07:53:50.059Z,14.20
2022-12-11T07:56:18.324Z,13.20
2022-12-11T07:58:45.261Z,14.10
2022-12-11T08:01:20.642Z,14.80
2022-12-11T08:03:47.701Z,14.07
2022-12-11T08:06:14.383Z,14.30
2022-12-11T08:08:41.733Z,14.57
2022-12-11T08:11:11.216Z,14.85
2022-12-11T08:13:39.435Z,14.98
2022-12-11T08:16:11.738Z,14.50
2022-12-11T08:18:38.804Z,15.27
2022-12-11T08:21:07.043Z,14.57
2022-12-11T08:23:33.954Z,15.65
2022-12-11T08:26:02.788Z,16.42
2022-12-11T08:28:29.281Z,14.45
2022-12-11T08:30:55.963Z,15.35
2022-12-11T08:33:22.660Z,15.70
2022-12-11T08:35:49.191Z,14.75
2022-12-11T08:38:17.661Z,14.00
2022-12-11T08:40:46.164Z,15.15
2022-12-11T08:43:12.585Z,14.70
2022-12-11T08:45:39.037Z,15.40
2022-12-11T08:48:05.860Z,15.75
2022-12-11T08:50:32.703Z,15.70
2022-12-11T08:52:59.183Z,16.45
2022-12-11T08:55:25.611Z,15.48
2022-12-11T08:57:52.160Z,15.53
2022-12-11T09:00:18.857Z,14.88
2022-12-11T09:02:45.477Z,15.95
2022-12-11T09:05:12.288Z,16.23
2022-12-11T09:07:38.974Z,15.30
2022-12-11T09:10:07.336Z,15.30
2022-12-11T09:12:34.846Z,15.63
2022-12-11T09:15:01.335Z,15.68
2022-12-11T09:17:27.867Z,16.40
2022-12-11T09:19:54.633Z,15.43
2022-12-11T09:22:21.161Z,15.13
2022-12-11T09:24:47.606Z,14.23
2022-12-11T09:27:14.007Z,16.27
2022-12-11T09:29:40.579Z,16.88
2022-12-11T09:32:07.290Z,15.80
2022-12-11T09:34:33.764Z,16.60
2022-12-11T09:37:00.256Z,17.08
2022-12-11T09:39:26.754Z,15.00
2022-12-11T09:42:04.328Z,15.38
2022-12-11T09:44:35.288Z,14.95
2022-12-11T09:47:02.032Z,16.50
2022-12-11T09:49:41.333Z,15.93
2022-12-11T09:52:25.946Z,16.33
2022-12-11T09:54:59.903Z,14.77
2022-12-11T09:57:32.625Z,15.55
2022-12-11T10:00:13.827Z,15.90
2022-12-11T10:03:12.630Z,15.77
2022-12-11T10:06:05.008Z,16.25
2022-12-11T10:08:54.012Z,15.57
2022-12-11T10:11:35.730Z,17.45
2022-12-11T10:14:08.196Z,17.50
2022-12-11T10:16:40.139Z,16.83
2022-12-11T10:19:16.874Z,16.00
2022-12-11T10:21:44.168Z,15.68
2022-12-11T10:24:59.315Z,15.15
2022-12-11T10:27:20.033Z,14.27
2022-12-11T10:29:51.526Z,14.63
2022-12-11T10:32:40.303Z,15.25
2022-12-11T10:35:07.291Z,16.17
2022-12-11T10:37:33.827Z,16.20
2022-12-11T10:40:00.345Z,15.33
2022-12-11T10:42:27.006Z,16.27
2022-12-11T10:45:01.337Z,15.43
2022-12-11T10:47:28.859Z,15.85
2022-12-11T10:50:00.983Z,14.45
2022-12-11T10:52:35.605Z,15.73
2022-12-11T10:55:17.546Z,15.00
2022-12-11T10:57:44.256Z,14.98
2022-12-11T11:00:30.940Z,16.27
2022-12-11T11:02:58.195Z,15.88
2022-12-11T11:05:36.390Z,15.90
2022-12-11T11:08:10.010Z,15.75
2022-12-11T11:10:36.524Z,16.88
2022-12-11T11:13:03.019Z,17.42
2022-12-11T11:15:30.894Z,16.20
2022-12-11T11:18:15.910Z,15.13
2022-12-11T11:20:48.440Z,15.88
2022-12-11T11:23:16.452Z,16.08
2022-12-11T11:25:52.369Z,16.13
2022-12-11T11:28:30.999Z,15.40
2022-12-11T11:31:02.386Z,16.87
2022-12-11T11:33:30.177Z,16.60
2022-12-11T11:36:05.520Z,16.58
2022-12-11T11:38:35.768Z,16.00
2022-12-11T11:41:24.145Z,16.83
2022-12-11T11:43:58.041Z,15.43
2022-12-11T11:46:38.520Z,15.27
2022-12-11T11:49:44.610Z,15.27
2022-12-11T11:52:23.356Z,14.85
2022-12-11T11:54:56.685Z,17.08
2022-12-11T11:57:40.510Z,15.37
2022-12-11T12:00:17.818Z,16.27
2022-12-11T12:02:45.171Z,15.40
2022-12-11T12:05:16.658Z,15.85
2022-12-11T12:08:10.026Z,16.25
2022-12-11T12:11:05.047Z,15.67
2022-12-11T12:13:49.883Z,16.02
2022-12-11T12:16:52.197Z,15.30
2022-12-11T12:19:22.712Z,16.42
2022-12-11T12:21:51.942Z,16.77
2022-12-11T12:24:43.170Z,16.20
2022-12-11T12:27:50.415Z,17.08
2022-12-11T12:30:22.106Z,15.75
2022-12-11T12:33:04.459Z,15.55
2022-12-11T12:35:35.099Z,13.48
2022-12-11T12:38:23.500Z,11.43
2022-12-11T12:41:10.307Z,14.23
2022-12-11T12:43:46.747Z,13.52
2022-12-11T12:46:33.342Z,14.27
2022-12-11T12:49:02.501Z,13.80
2022-12-11T12:51:30.082Z,14.33
2022-12-11T12:54:05.575Z,14.15
2022-12-11T12:56:38.096Z,14.70
2022-12-11T12:59:04.634Z,13.65
2022-12-11T13:01:31.442Z,14.07
2022-12-11T13:04:13.279Z,13.73
2022-12-11T13:06:47.371Z,13.68
2022-12-11T13:09:22.206Z,14.00
2022-12-11T13:11:51.166Z,13.18
2022-12-11T13:14:17.559Z,13.80
2022-12-11T13:16:49.012Z,12.73
2022-12-11T13:19:24.510Z,12.25
2022-12-11T13:22:06.136Z,13.80
2022-12-11T13:24:33.743Z,13.75
2022-12-11T13:27:11.984Z,12.27
2022-12-11T13:29:42.562Z,13.90
2022-12-11T13:32:08.931Z,13.98
2022-12-11T13:34:38.976Z,14.85
2022-12-11T13:37:06.080Z,14.77
2022-12-11T13:39:35.439Z,13.40
2022-12-11T13:42:05.316Z,13.53
2022-12-11T13:44:41.777Z,13.40
2022-12-11T13:47:14.054Z,14.80
2022-12-11T13:49:43.500Z,11.82
2022-12-11T13:52:25.152Z,13.60
2022-12-11T13:54:53.955Z,12.57
2022-12-11T13:57:23.962Z,12.48
2022-12-11T13:59:55.813Z,13.15
2022-12-11T14:02:29.937Z,13.48
2022-12-11T14:05:01.477Z,13.90
2022-12-11T14:07:35.168Z,13.57
2022-12-11T14:10:29.580Z,13.10
2022-12-11T14:12:59.007Z,13.82
2022-12-11T14:15:28.056Z,14.63
2022-12-11T14:17:55.669Z,13.85
2022-12-11T14:20:28.711Z,14.90
2022-12-11T14:23:16.699Z,13.77
2022-12-11T14:25:51.575Z,14.77
2022-12-11T14:28:18.125Z,14.48
2022-12-11T14:30:51.519Z,14.27
2022-12-11T14:33:20.819Z,13.10
2022-12-11T14:35:48.940Z,14.23
2022-12-11T14:38:22.174Z,13.30
2022-12-11T14:40:53.213Z,13.85
2022-12-11T14:43:45.930Z,13.98
2022-12-11T14:46:23.752Z,13.93
2022-12-11T14:49:01.251Z,14.13
2022-12-11T14:51:33.556Z,12.98
2022-12-11T14:54:00.761Z,13.02
2022-12-11T14:56:29.569Z,13.80
2022-12-11T14:58:58.180Z,14.90
2022-12-11T15:01:29.455Z,13.55
2022-12-11T15:04:19.672Z,13.52
2022-12-11T15:06:48.646Z,13.63
2022-12-11T15:09:40.571Z,13.60
2022-12-11T15:12:16.684Z,29.30
2022-12-11T15:14:53.952Z,14.75
2022-12-11T15:17:22.667Z,17.73
2022-12-11T15:19:52.991Z,17.48
2022-12-11T15:22:22.441Z,14.30
2022-12-11T15:24:52.611Z,13.10
2022-12-11T15:27:19.149Z,13.15
2022-12-11T15:29:45.767Z,14.10
2022-12-11T15:32:12.191Z,13.55
2022-12-11T15:34:46.248Z,12.35
2022-12-11T15:37:18.827Z,13.63
2022-12-11T15:39:45.376Z,13.90
2022-12-11T15:42:16.197Z,14.43
2022-12-11T15:44:42.785Z,13.75
2022-12-11T15:47:19.662Z,13.82
2022-12-11T15:49:46.260Z,13.00
2022-12-11T15:52:12.859Z,13.82
2022-12-11T15:54:39.305Z,24.55
2022-12-11T15:57:11.268Z,15.18
2022-12-11T15:59:37.839Z,14.60
2022-12-11T16:02:04.309Z,15.60
2022-12-11T16:04:30.904Z,14.23
2022-12-11T16:06:57.684Z,13.45
2022-12-11T16:09:24.173Z,14.27
2022-12-11T16:11:50.752Z,16.38
2022-12-11T16:14:17.219Z,14.27
2022-12-11T16:16:43.800Z,14.23
2022-12-11T16:19:10.279Z,14.10
2022-12-11T16:21:36.789Z,13.85
2022-12-11T16:24:03.631Z,14.02
2022-12-11T16:26:30.219Z,13.60
2022-12-11T16:28:56.929Z,12.88
2022-12-11T16:31:23.650Z,14.25
2022-12-11T16:33:50.157Z,13.93
2022-12-11T16:36:19.108Z,14.80
2022-12-11T16:38:53.572Z,13.63
2022-12-11T16:41:20.958Z,13.43
2022-12-11T16:43:47.423Z,14.23
2022-12-11T16:46:18.172Z,15.48
2022-12-11T16:48:45.190Z,14.57
2022-12-11T16:51:11.818Z,14.50
2022-12-11T16:53:38.528Z,16.63
2022-12-11T16:56:06.199Z,14.55
2022-12-11T16:58:33.337Z,13.95
2022-12-11T17:01:00.041Z,14.63
2022-12-11T17:03:26.664Z,14.10
2022-12-11T17:05:53.098Z,14.35
2022-12-11T17:08:19.586Z,16.13
2022-12-11T17:10:46.082Z,15.23
2022-12-11T17:13:12.884Z,13.38
2022-12-11T17:15:41.281Z,15.03
2022-12-11T17:18:08.545Z,14.95
2022-12-11T17:20:35.010Z,15.25
2022-12-11T17:23:01.675Z,16.20
2022-12-11T17:25:28.243Z,15.63
2022-12-11T17:27:55.243Z,14.60
2022-12-11T17:30:21.782Z,14.60
2022-12-11T17:32:48.579Z,15.20
2022-12-11T17:35:15.240Z,15.45
2022-12-11T17:37:41.776Z,15.45
2022-12-11T17:40:08.784Z,15.40
2022-12-11T17:42:35.357Z,14.75
2022-12-11T17:45:01.929Z,16.10
2022-12-11T17:47:28.782Z,15.55
2022-12-11T17:49:55.419Z,15.52
2022-12-11T17:52:22.035Z,15.63
2022-12-11T17:54:48.480Z,15.70
2022-12-11T17:57:15.013Z,15.90
2022-12-11T17:59:41.446Z,15.80
2022-12-11T18:02:09.942Z,16.05
2022-12-11T18:04:38.402Z,16.17
2022-12-11T18:07:05.895Z,15.23
2022-12-11T18:09:32.780Z,16.45
2022-12-11T18:11:59.525Z,15.18
2022-12-11T18:14:26.093Z,16.33
2022-12-11T18:16:52.757Z,15.97
2022-12-11T18:19:19.247Z,16.27
2022-12-11T18:21:46.293Z,16.48
2022-12-11T18:24:13.082Z,16.45
2022-12-11T18:26:39.627Z,16.48
2022-12-11T18:29:06.229Z,17.10
2022-12-11T18:31:35.369Z,16.33
2022-12-11T18:34:06.453Z,18.15
2022-12-11T18:36:33.833Z,17.70
2022-12-11T18:39:00.613Z,18.42
2022-12-11T18:41:27.194Z,17.40
2022-12-11T18:43:54.922Z,19.23
2022-12-11T18:46:21.823Z,19.17
2022-12-11T18:48:48.777Z,18.20
2022-12-11T18:51:18.686Z,18.00
2022-12-11T18:53:45.314Z,16.50
2022-12-11T18:56:14.911Z,15.98
2022-12-11T18:58:41.870Z,17.38
2022-12-11T19:01:13.474Z,19.45
2022-12-11T19:03:40.309Z,17.75
2022-12-11T19:06:10.223Z,16.97
2022-12-11T19:08:36.778Z,20.65
2022-12-11T19:11:03.954Z,17.30
2022-12-11T19:13:30.585Z,17.83
2022-12-11T19:15:57.175Z,18.88
2022-12-11T19:18:23.749Z,16.93
2022-12-11T19:20:55.409Z,18.20
2022-12-11T19:23:29.591Z,18.52
2022-12-11T19:25:56.117Z,17.05
2022-12-11T19:28:22.661Z,17.35
2022-12-11T19:30:49.230Z,19.33
2022-12-11T19:33:16.296Z,19.67
2022-12-11T19:35:43.383Z,20.60
2022-12-11T19:38:10.134Z,19.98
2022-12-11T19:40:42.232Z,19.20
2022-12-11T19:43:09.419Z,19.40
2022-12-11T19:45:36.636Z,17.95
2022-12-11T19:48:03.439Z,17.40
2022-12-11T19:50:30.000Z,17.40
2022-12-11T19:52:56.443Z,18.20
2022-12-11T19:55:22.991Z,18.93
2022-12-11T19:57:49.478Z,20.02
2022-12-11T20:00:16.293Z,19.75
2022-12-11T20:02:43.047Z,65.32
2022-12-11T20:05:10.152Z,48.10
2022-12-11T20:07:37.021Z,31.87
2022-12-11T20:10:03.890Z,18.48
2022-12-11T20:12:30.328Z,17.83
2022-12-11T20:14:56.804Z,17.92
2022-12-11T20:17:23.347Z,17.25
2022-12-11T20:19:49.907Z,17.80
2022-12-11T20:22:16.412Z,18.58
2022-12-11T20:24:42.928Z,18.10
2022-12-11T20:27:09.449Z,17.95
2022-12-11T20:29:35.953Z,17.98
2022-12-11T20:32:02.577Z,18.63
2022-12-11T20:34:29.281Z,18.00
2022-12-11T20:36:55.814Z,17.80
2022-12-11T20:39:22.285Z,19.25
2022-12-11T20:41:48.945Z,18.55
2022-12-11T20:44:15.495Z,17.70
2022-12-11T20:46:42.014Z,18.08
2022-12-11T20:49:08.577Z,17.42
2022-12-11T20:51:35.027Z,18.60
2022-12-11T20:54:01.513Z,18.75
2022-12-11T20:56:31.143Z,18.43
2022-12-11T20:58:59.099Z,19.50
2022-12-11T21:01:27.997Z,18.63
2022-12-11T21:03:54.558Z,18.15
2022-12-11T21:06:26.614Z,18.40
2022-12-11T21:08:53.757Z,19.10
2022-12-11T21:11:21.030Z,18.20
2022-12-11T21:13:47.594Z,17.77
2022-12-11T21:16:14.302Z,17.48
2022-12-11T21:18:41.217Z,17.70
2022-12-11T21:21:07.734Z,16.73
2022-12-11T21:23:34.226Z,16.45
2022-12-11T21:26:00.918Z,14.75
2022-12-11T21:28:33.602Z,16.67
2022-12-11T21:31:07.806Z,16.38
2022-12-11T21:33:35.454Z,16.03
2022-12-11T21:36:06.547Z,16.52
2022-12-11T21:38:33.284Z,16.85
2022-12-11T21:41:08.095Z,15.50
2022-12-11T21:43:34.653Z,15.27
2022-12-11T21:46:02.341Z,14.00
2022-12-11T21:48:29.138Z,16.08
2022-12-11T21:50:56.143Z,15.02
2022-12-11T21:53:22.695Z,15.45
2022-12-11T21:55:49.257Z,16.17
2022-12-11T21:58:15.777Z,15.80
2022-12-11T22:00:42.454Z,16.15
2022-12-11T22:03:09.252Z,16.60
2022-12-11T22:05:35.814Z,15.93
2022-12-11T22:08:02.532Z,16.33
2022-12-11T22:10:29.250Z,16.43
2022-12-11T22:12:55.824Z,16.52
2022-12-11T22:15:22.501Z,14.60
2022-12-11T22:17:49.096Z,16.25
2022-12-11T22:20:15.817Z,16.08
2022-12-11T22:22:42.492Z,17.53
2022-12-11T22:25:09.482Z,16.95
2022-12-11T22:27:36.330Z,16.13
2022-12-11T22:30:05.646Z,17.48
2022-12-11T22:32:32.249Z,16.80
2022-12-11T22:34:58.778Z,16.53
2022-12-11T22:37:25.355Z,18.27
2022-12-11T22:39:51.870Z,17.60
2022-12-11T22:42:18.370Z,16.70
2022-12-11T22:44:44.880Z,17.90
2022-12-11T22:47:11.850Z,16.67
2022-12-11T22:49:38.371Z,18.08
2022-12-11T22:52:05.444Z,17.73
2022-12-11T22:54:32.057Z,18.67
2022-12-11T22:56:58.892Z,20.33
2022-12-11T22:59:25.493Z,19.57
2022-12-11T23:01:52.067Z,18.55
2022-12-11T23:04:18.548Z,18.33
2022-12-11T23:06:45.037Z,18.40
2022-12-11T23:09:12.061Z,19.38
2022-12-11T23:11:39.153Z,19.47
2022-12-11T23:14:07.790Z,18.45
2022-12-11T23:16:34.749Z,21.23
2022-12-11T23:19:01.245Z,20.65
2022-12-11T23:21:28.076Z,20.13
2022-12-11T23:23:55.433Z,20.73
2022-12-11T23:26:22.840Z,20.58
2022-12-11T23:28:49.403Z,20.88
2022-12-11T23:31:17.085Z,21.27
2022-12-11T23:33:43.798Z,20.70
2022-12-11T23:36:10.693Z,20.33
2022-12-11T23:38:37.978Z,20.67
2022-12-11T23:41:06.027Z,22.45
2022-12-11T23:43:34.807Z,21.70
2022-12-11T23:46:01.547Z,22.52
2022-12-11T23:48:28.165Z,20.90
2022-12-11T23:50:59.592Z,21.88
2022-12-11T23:53:27.260Z,21.70
2022-12-11T23:55:54.019Z,21.90
2022-12-11T23:58:20.591Z,21.60
